Time;durP1;ratioP1;P1;durP2;ratioP2;P2;SDS_P1;SDS_P2;PMS_P1;PMS_P2;Temp;Humidity;BMP_temperature;BMP_pressure;BME280_temperature;BME280_humidity;BME280_pressure;Samples;Min_cycle;Max_cycle;Signal;HPM_P1;HPM_P2
2021/12/18 00:01:53;;;;;;;6.17;4.77;;;7.90;98.30;;;;;;4233658;27;20847;-80
2021/12/18 00:03:56;;;;;;;5.13;4.00;;;7.90;98.30;;;;;;4234436;27;21013;-80
2021/12/18 00:06:00;;;;;;;5.00;3.80;;;7.80;98.30;;;;;;4231056;28;20477;-79
2021/12/18 00:08:03;;;;;;;4.90;3.43;;;7.80;98.30;;;;;;4232154;28;20474;-80
2021/12/18 00:10:07;;;;;;;4.87;3.67;;;7.80;98.30;;;;;;4240266;27;20462;-80
2021/12/18 00:12:10;;;;;;;4.50;3.40;;;7.70;98.30;;;;;;4237562;27;20490;-80
2021/12/18 00:14:15;;;;;;;4.00;2.93;;;7.80;98.30;;;;;;4222204;28;20463;-80
2021/12/18 00:16:18;;;;;;;3.90;3.10;;;7.90;98.30;;;;;;4232368;28;20466;-80
2021/12/18 00:18:21;;;;;;;5.10;3.80;;;7.90;98.30;;;;;;4237963;27;21329;-79
2021/12/18 00:20:25;;;;;;;5.37;3.27;;;7.90;98.30;;;;;;4231700;27;20466;-80
2021/12/18 00:22:28;;;;;;;5.53;3.47;;;7.90;98.30;;;;;;4242830;27;21280;-79
2021/12/18 00:24:31;;;;;;;5.97;4.17;;;7.90;98.30;;;;;;4240801;27;20457;-79
2021/12/18 00:26:34;;;;;;;6.97;3.80;;;7.90;98.30;;;;;;4232868;28;20542;-79
2021/12/18 00:28:37;;;;;;;4.20;3.47;;;7.90;98.30;;;;;;4230802;28;20494;-79
2021/12/18 00:30:41;;;;;;;6.03;3.80;;;7.90;98.30;;;;;;4234139;28;20497;-79
2021/12/18 00:32:44;;;;;;;5.17;3.40;;;7.80;98.30;;;;;;4244160;27;20547;-80
2021/12/18 00:34:47;;;;;;;6.57;4.20;;;7.90;98.30;;;;;;4230871;28;20467;-79
2021/12/18 00:36:50;;;;;;;5.50;3.83;;;7.90;98.30;;;;;;4229804;28;20472;-78
2021/12/18 00:38:53;;;;;;;7.63;4.10;;;7.90;98.30;;;;;;4229973;27;20468;-79
2021/12/18 00:41:12;;;;;;;5.33;3.63;;;7.90;98.30;;;;;;4229301;28;20949;-78
2021/12/18 00:43:29;;;;;;;5.27;4.00;;;7.90;98.30;;;;;;4232266;28;20560;-79
2021/12/18 00:45:32;;;;;;;4.17;3.40;;;7.90;98.30;;;;;;4233106;28;20520;-80
2021/12/18 00:47:37;;;;;;;5.13;3.40;;;7.90;98.30;;;;;;4233698;28;20840;-79
2021/12/18 00:49:39;;;;;;;5.33;3.30;;;7.80;98.30;;;;;;4225190;28;20947;-80
2021/12/18 00:51:42;;;;;;;5.80;4.10;;;7.80;98.30;;;;;;4229823;28;20828;-80
2021/12/18 00:53:45;;;;;;;5.07;2.97;;;7.90;98.30;;;;;;4233259;27;20467;-77
2021/12/18 00:55:50;;;;;;;5.37;3.73;;;7.90;98.30;;;;;;4227993;27;20466;-79
2021/12/18 00:57:53;;;;;;;6.30;3.90;;;7.90;98.30;;;;;;4225101;28;20453;-80
2021/12/18 01:00:00;;;;;;;5.20;3.83;;;7.80;98.30;;;;;;4229134;28;20520;-79
2021/12/18 01:02:04;;;;;;;5.80;4.20;;;7.80;98.30;;;;;;4238333;27;20482;-79
2021/12/18 01:04:08;;;;;;;8.07;3.70;;;7.80;98.30;;;;;;4224055;28;20469;-79
2021/12/18 01:06:11;;;;;;;5.70;3.80;;;7.80;98.30;;;;;;4235522;27;20942;-79
2021/12/18 01:08:14;;;;;;;7.43;3.90;;;7.80;98.30;;;;;;4229569;28;20471;-79
2021/12/18 01:10:36;;;;;;;8.70;4.40;;;7.80;98.30;;;;;;4226850;28;20826;-79
2021/12/18 01:12:43;;;;;;;5.60;4.27;;;7.80;98.30;;;;;;4219661;28;20546;-80
2021/12/18 01:15:01;;;;;;;4.80;3.50;;;7.80;98.30;;;;;;4234519;27;20537;-79
2021/12/18 01:24:20;;;;;;;6.17;5.10;;;7.70;98.30;;;;;;4199679;28;21464;-80
2021/12/18 01:26:23;;;;;;;5.93;4.17;;;7.70;98.30;;;;;;4210508;28;20468;-80
2021/12/18 01:28:26;;;;;;;5.50;3.63;;;7.80;98.30;;;;;;4232236;27;20529;-79
2021/12/18 01:30:28;;;;;;;5.47;4.10;;;7.70;98.30;;;;;;4224172;28;20983;-78
2021/12/18 01:32:31;;;;;;;5.73;3.93;;;7.70;98.30;;;;;;4222260;28;20966;-79
2021/12/18 01:34:35;;;;;;;4.90;3.43;;;7.80;98.30;;;;;;4230101;28;20545;-79
2021/12/18 01:36:38;;;;;;;5.20;3.37;;;7.80;98.30;;;;;;4228213;28;20461;-79
2021/12/18 01:38:41;;;;;;;5.83;3.70;;;7.80;98.30;;;;;;4231552;28;20501;-79
2021/12/18 01:40:44;;;;;;;5.43;3.50;;;7.80;98.30;;;;;;4232887;28;20520;-79
2021/12/18 01:43:41;;;;;;;4.70;3.40;;;7.80;98.30;;;;;;4232443;28;20489;-78
2021/12/18 01:45:35;;;;;;;6.57;4.20;;;7.80;98.30;;;;;;4227271;28;20508;-77
2021/12/18 01:52:32;;;;;;;6.30;4.10;;;7.90;98.30;;;;;;4220235;28;21286;-78
2021/12/18 01:54:35;;;;;;;6.13;4.17;;;7.90;98.30;;;;;;4229546;28;20478;-78
2021/12/18 01:56:40;;;;;;;7.50;4.70;;;7.90;98.30;;;;;;4223846;28;20501;-78
2021/12/18 01:58:45;;;;;;;7.77;4.33;;;7.90;98.30;;;;;;4231235;27;20466;-78
2021/12/18 02:00:48;;;;;;;9.07;5.50;;;7.90;98.30;;;;;;4236537;27;20468;-78
2021/12/18 02:02:51;;;;;;;7.83;4.40;;;7.90;98.30;;;;;;4226256;28;20956;-78
2021/12/18 02:04:55;;;;;;;7.90;4.70;;;7.90;98.30;;;;;;4226243;28;20565;-78
2021/12/18 02:07:01;;;;;;;7.43;4.60;;;7.80;98.30;;;;;;4240204;27;20464;-77
2021/12/18 02:09:04;;;;;;;8.20;4.57;;;7.80;98.30;;;;;;4230166;28;20467;-77
2021/12/18 02:11:16;;;;;;;8.80;5.03;;;7.80;98.30;;;;;;4243440;27;20957;-77
2021/12/18 02:13:25;;;;;;;7.87;5.00;;;7.90;98.30;;;;;;4225169;28;20528;-77
2021/12/18 02:20:37;;;;;;;9.67;5.50;;;7.80;98.30;;;;;;4214724;28;20472;-78
2021/12/18 02:22:40;;;;;;;10.60;5.40;;;7.80;98.30;;;;;;4225425;28;20503;-78
2021/12/18 02:24:43;;;;;;;10.20;5.90;;;7.90;98.30;;;;;;4225729;28;20462;-78
2021/12/18 02:26:46;;;;;;;9.13;5.37;;;7.80;98.30;;;;;;4226011;28;20514;-79
2021/12/18 02:28:50;;;;;;;10.50;5.77;;;7.90;98.30;;;;;;4223234;28;20964;-78
2021/12/18 02:30:55;;;;;;;10.33;5.37;;;7.80;98.30;;;;;;4221788;28;20527;-78
2021/12/18 02:32:58;;;;;;;10.10;5.03;;;7.80;98.30;;;;;;4227465;28;20491;-78
2021/12/18 02:35:05;;;;;;;9.43;5.63;;;7.80;98.30;;;;;;4214900;27;20467;-78
2021/12/18 02:37:12;;;;;;;10.47;5.23;;;7.80;98.30;;;;;;4224129;27;20474;-78
2021/12/18 02:39:23;;;;;;;10.03;6.20;;;7.80;98.30;;;;;;4221639;28;20954;-79
2021/12/18 02:41:31;;;;;;;13.27;7.53;;;7.80;98.30;;;;;;4225910;28;20477;-78
2021/12/18 02:43:36;;;;;;;11.70;6.30;;;7.80;98.30;;;;;;4209113;28;20471;-78
2021/12/18 02:45:39;;;;;;;13.40;6.00;;;7.80;98.30;;;;;;4223980;28;20462;-78
2021/12/18 02:47:47;;;;;;;11.97;7.10;;;7.80;98.30;;;;;;4212045;27;20472;-78
2021/12/18 02:49:52;;;;;;;12.80;6.60;;;7.90;98.30;;;;;;4227420;28;20923;-78
2021/12/18 02:51:54;;;;;;;11.10;6.30;;;7.80;98.30;;;;;;4220791;28;20500;-78
2021/12/18 02:53:59;;;;;;;13.97;7.60;;;7.80;98.30;;;;;;4217057;28;20467;-78
2021/12/18 02:56:04;;;;;;;13.97;6.67;;;7.80;98.30;;;;;;4222863;28;20523;-77
2021/12/18 02:58:07;;;;;;;11.73;6.60;;;7.80;98.30;;;;;;4226711;28;20516;-77
2021/12/18 03:00:11;;;;;;;14.40;7.40;;;7.70;98.30;;;;;;4225203;28;20474;-78
2021/12/18 03:02:15;;;;;;;13.37;6.50;;;7.70;98.30;;;;;;4221795;28;20490;-78
2021/12/18 03:04:23;;;;;;;17.83;8.53;;;7.70;98.30;;;;;;4222464;28;20470;-78
2021/12/18 03:06:31;;;;;;;14.07;7.30;;;7.70;98.30;;;;;;4222131;28;20524;-78
2021/12/18 03:08:43;;;;;;;12.47;7.00;;;7.70;98.30;;;;;;4233545;27;20523;-78
2021/12/18 03:23:03;;;;;;;16.03;8.73;;;7.70;98.30;;;;;;4175206;28;20493;-78
2021/12/18 03:25:10;;;;;;;9.73;6.50;;;7.70;98.30;;;;;;4225405;28;20533;-78
2021/12/18 03:27:14;;;;;;;12.80;9.00;;;7.70;98.30;;;;;;4224316;28;20471;-78
2021/12/18 03:29:17;;;;;;;17.53;7.93;;;7.80;98.30;;;;;;4222023;28;20475;-78
2021/12/18 03:31:20;;;;;;;11.80;7.03;;;7.80;98.30;;;;;;4232101;28;20484;-78
2021/12/18 03:33:23;;;;;;;13.50;7.30;;;7.80;98.30;;;;;;4230763;27;20486;-78
2021/12/18 03:35:27;;;;;;;15.00;8.10;;;7.80;98.30;;;;;;4225983;28;21042;-78
2021/12/18 03:37:30;;;;;;;12.57;7.13;;;7.90;98.30;;;;;;4224255;28;20566;-78
2021/12/18 03:39:33;;;;;;;12.00;6.47;;;7.90;98.30;;;;;;4232445;28;20878;-78
2021/12/18 03:41:36;;;;;;;14.20;7.23;;;7.80;98.30;;;;;;4231858;28;20471;-78
2021/12/18 03:43:40;;;;;;;15.67;7.53;;;7.80;98.30;;;;;;4226042;28;20929;-78
2021/12/18 03:45:43;;;;;;;12.60;7.27;;;7.80;98.30;;;;;;4230024;28;20971;-78
2021/12/18 03:47:47;;;;;;;12.10;8.03;;;7.90;98.30;;;;;;4225915;28;22444;-78
2021/12/18 03:49:50;;;;;;;13.27;8.07;;;7.90;98.30;;;;;;4223948;28;20917;-78
2021/12/18 03:51:53;;;;;;;12.40;7.27;;;7.90;98.30;;;;;;4230696;28;20491;-78
2021/12/18 03:53:56;;;;;;;14.83;8.10;;;7.90;98.30;;;;;;4230849;28;20872;-78
2021/12/18 03:56:00;;;;;;;12.93;7.47;;;8.00;98.30;;;;;;4221224;28;21089;-78
2021/12/18 03:58:03;;;;;;;11.47;6.30;;;7.90;98.30;;;;;;4224246;28;20469;-78
2021/12/18 04:00:11;;;;;;;8.60;5.40;;;7.90;98.30;;;;;;4226551;28;20517;-78
2021/12/18 04:02:13;;;;;;;7.80;4.90;;;7.90;98.30;;;;;;4230922;28;20880;-78
2021/12/18 04:04:16;;;;;;;9.07;5.13;;;7.90;98.30;;;;;;4227221;28;20532;-78
2021/12/18 04:06:20;;;;;;;7.87;5.30;;;7.90;98.30;;;;;;4231695;28;20909;-78
2021/12/18 04:08:22;;;;;;;8.30;5.10;;;8.00;98.30;;;;;;4228008;28;20472;-78
2021/12/18 04:10:26;;;;;;;7.67;4.70;;;7.90;98.30;;;;;;4220413;28;21025;-78
2021/12/18 04:12:29;;;;;;;9.40;6.40;;;8.00;98.30;;;;;;4230176;28;20824;-78
2021/12/18 04:14:31;;;;;;;8.73;5.47;;;8.00;98.30;;;;;;4223776;28;20948;-78
2021/12/18 04:16:36;;;;;;;11.33;6.27;;;8.00;98.30;;;;;;4237723;27;20465;-78
2021/12/18 04:18:39;;;;;;;10.60;7.00;;;8.00;98.30;;;;;;4224177;28;20475;-78
2021/12/18 04:20:41;;;;;;;7.90;5.67;;;8.00;98.30;;;;;;4231378;28;21060;-78
2021/12/18 04:22:44;;;;;;;10.17;6.10;;;8.00;98.30;;;;;;4227318;28;20484;-78
2021/12/18 04:24:47;;;;;;;11.40;6.40;;;8.00;98.30;;;;;;4219507;28;20826;-78
2021/12/18 04:26:50;;;;;;;10.57;6.40;;;8.10;98.30;;;;;;4231544;28;20466;-78
2021/12/18 04:28:53;;;;;;;12.17;7.90;;;8.10;98.30;;;;;;4230162;28;20473;-78
2021/12/18 04:30:56;;;;;;;12.87;7.03;;;8.00;98.30;;;;;;4220798;28;20583;-78
2021/12/18 04:33:00;;;;;;;11.10;7.30;;;8.10;98.30;;;;;;4221024;28;20497;-78
2021/12/18 04:35:03;;;;;;;11.77;7.03;;;8.10;98.30;;;;;;4223304;28;20484;-78
2021/12/18 04:37:06;;;;;;;14.00;7.60;;;8.10;98.30;;;;;;4226657;28;20468;-78
2021/12/18 04:39:09;;;;;;;11.30;6.90;;;8.00;98.30;;;;;;4230599;28;20462;-78
2021/12/18 04:41:20;;;;;;;11.50;6.90;;;8.10;98.30;;;;;;4228492;28;20490;-78
2021/12/18 04:43:22;;;;;;;9.30;6.93;;;8.10;98.30;;;;;;4226423;28;20490;-78
2021/12/18 04:45:25;;;;;;;10.73;6.47;;;8.10;98.30;;;;;;4230330;27;20466;-78
2021/12/18 04:47:28;;;;;;;10.07;5.97;;;8.10;98.30;;;;;;4228474;28;20467;-78
2021/12/18 04:49:33;;;;;;;11.30;7.20;;;8.10;98.30;;;;;;4233455;27;20467;-78
2021/12/18 04:51:36;;;;;;;11.07;7.00;;;8.10;98.30;;;;;;4231287;28;20489;-78
2021/12/18 04:53:38;;;;;;;12.63;8.00;;;8.10;98.30;;;;;;4231318;28;20477;-78
2021/12/18 04:55:41;;;;;;;18.40;9.90;;;8.10;98.30;;;;;;4231451;28;20469;-78
2021/12/18 04:57:44;;;;;;;15.27;10.00;;;8.10;98.30;;;;;;4231540;28;20473;-77
2021/12/18 04:59:47;;;;;;;20.17;11.80;;;8.20;98.30;;;;;;4224900;28;21134;-78
2021/12/18 05:01:51;;;;;;;13.40;7.93;;;8.20;98.30;;;;;;4230734;28;20491;-78
2021/12/18 05:03:54;;;;;;;15.97;9.43;;;8.20;98.30;;;;;;4231423;28;20468;-78
2021/12/18 05:06:01;;;;;;;11.80;8.20;;;8.10;98.30;;;;;;4228102;28;20524;-78
2021/12/18 05:08:04;;;;;;;16.47;9.40;;;8.10;98.30;;;;;;4231266;28;20484;-78
2021/12/18 05:10:10;;;;;;;13.80;7.70;;;8.10;98.30;;;;;;4231317;28;20525;-78
2021/12/18 05:12:12;;;;;;;14.13;8.30;;;8.10;98.30;;;;;;4230428;28;20606;-79
2021/12/18 05:14:15;;;;;;;13.50;8.27;;;8.10;98.30;;;;;;4231107;28;20491;-78
2021/12/18 05:16:18;;;;;;;11.97;7.87;;;8.10;98.30;;;;;;4239699;27;20467;-78
2021/12/18 05:18:21;;;;;;;13.33;8.07;;;8.10;98.30;;;;;;4225183;28;21124;-78
2021/12/18 05:20:24;;;;;;;10.20;6.30;;;8.10;98.30;;;;;;4229970;28;20565;-78
2021/12/18 05:22:28;;;;;;;13.93;6.07;;;8.00;98.30;;;;;;4230792;28;20496;-78
2021/12/18 05:24:31;;;;;;;9.70;5.70;;;8.10;98.30;;;;;;4234490;27;20491;-78
2021/12/18 05:26:34;;;;;;;8.43;6.67;;;8.00;98.30;;;;;;4228982;28;20486;-78
2021/12/18 05:28:37;;;;;;;9.83;7.23;;;8.00;98.30;;;;;;4230808;28;21085;-78
2021/12/18 05:30:40;;;;;;;11.17;6.57;;;8.00;98.30;;;;;;4230882;28;20464;-78
2021/12/18 05:32:43;;;;;;;12.87;8.60;;;8.00;98.30;;;;;;4230499;28;20581;-78
2021/12/18 05:34:46;;;;;;;14.17;9.03;;;8.00;98.30;;;;;;4224958;28;20478;-78
2021/12/18 05:39:13;;;;;;;12.20;8.23;;;7.90;98.30;;;;;;4224928;28;20465;-78
2021/12/18 05:41:15;;;;;;;14.07;9.67;;;7.90;98.30;;;;;;4230252;28;20474;-78
2021/12/18 05:43:18;;;;;;;16.97;10.50;;;8.00;98.30;;;;;;4230760;28;20495;-78
2021/12/18 05:45:21;;;;;;;14.80;9.00;;;8.00;98.30;;;;;;4239361;27;20516;-78
2021/12/18 05:47:24;;;;;;;12.17;8.47;;;8.00;98.30;;;;;;4230378;28;20852;-78
2021/12/18 05:49:27;;;;;;;13.13;7.23;;;8.00;98.30;;;;;;4231585;27;20467;-77
2021/12/18 05:51:31;;;;;;;9.97;7.40;;;8.00;98.30;;;;;;4227384;27;20488;-78
2021/12/18 05:53:34;;;;;;;10.20;7.00;;;8.00;98.30;;;;;;4229956;28;20521;-78
2021/12/18 05:55:38;;;;;;;9.10;7.13;;;8.00;98.30;;;;;;4217255;28;20516;-78
2021/12/18 05:57:41;;;;;;;7.73;5.70;;;8.00;98.30;;;;;;4228925;28;20475;-78
2021/12/18 05:59:44;;;;;;;8.03;5.60;;;8.00;98.30;;;;;;4230628;28;20470;-78
2021/12/18 06:01:47;;;;;;;7.30;4.40;;;7.90;98.30;;;;;;4228186;28;20491;-78
2021/12/18 06:03:50;;;;;;;6.30;4.73;;;8.00;98.30;;;;;;4230833;27;20475;-78
2021/12/18 06:05:53;;;;;;;6.20;4.20;;;8.00;98.30;;;;;;4229974;28;21063;-78
2021/12/18 06:07:58;;;;;;;5.80;4.40;;;8.00;98.30;;;;;;4235451;27;20476;-79
2021/12/18 06:10:01;;;;;;;7.33;4.60;;;7.90;98.30;;;;;;4230749;28;20476;-78
2021/12/18 06:12:06;;;;;;;5.77;4.57;;;8.00;98.30;;;;;;4229935;28;20493;-78
2021/12/18 06:14:10;;;;;;;6.30;4.73;;;7.90;98.30;;;;;;4229503;28;21074;-78
2021/12/18 06:16:13;;;;;;;9.23;5.03;;;7.90;98.30;;;;;;4229988;28;20837;-78
2021/12/18 06:18:16;;;;;;;6.90;5.43;;;7.90;98.30;;;;;;4227902;28;20477;-78
2021/12/18 06:20:19;;;;;;;14.53;11.17;;;8.00;98.30;;;;;;4229564;28;20896;-78
2021/12/18 06:22:22;;;;;;;22.73;14.20;;;8.10;98.30;;;;;;4229540;28;20506;-78
2021/12/18 06:24:26;;;;;;;21.30;16.50;;;8.00;98.30;;;;;;4229818;28;20477;-78
2021/12/18 06:26:29;;;;;;;9.73;7.80;;;8.10;98.30;;;;;;4230128;28;20956;-78
2021/12/18 06:28:33;;;;;;;6.83;6.03;;;8.10;98.30;;;;;;4231567;27;20470;-78
2021/12/18 06:30:41;;;;;;;6.97;6.17;;;8.00;98.30;;;;;;4241706;27;20470;-78
2021/12/18 06:32:44;;;;;;;6.80;5.40;;;7.90;98.30;;;;;;4234684;27;20559;-78
2021/12/18 06:34:47;;;;;;;7.63;5.93;;;7.90;98.30;;;;;;4229675;28;20485;-78
2021/12/18 06:36:50;;;;;;;8.60;5.80;;;7.90;98.30;;;;;;4221603;28;20461;-77
2021/12/18 06:38:52;;;;;;;8.03;6.47;;;7.90;98.30;;;;;;4229404;28;20459;-79
2021/12/18 06:40:55;;;;;;;15.93;11.03;;;7.90;98.30;;;;;;4232197;28;20461;-78
2021/12/18 06:42:58;;;;;;;27.70;16.77;;;7.90;98.30;;;;;;4229716;28;20491;-78
2021/12/18 06:45:03;;;;;;;32.20;19.40;;;7.90;98.30;;;;;;4230170;28;20465;-78
2021/12/18 06:47:05;;;;;;;12.57;9.00;;;7.90;98.30;;;;;;4230449;28;20480;-78
2021/12/18 06:49:10;;;;;;;11.80;9.17;;;7.90;98.30;;;;;;4238691;27;20466;-78
2021/12/18 06:51:13;;;;;;;13.13;8.37;;;7.90;98.30;;;;;;4229451;28;20471;-78
2021/12/18 06:53:15;;;;;;;10.53;7.97;;;8.00;98.30;;;;;;4229271;28;20577;-78
2021/12/18 06:55:19;;;;;;;9.97;7.90;;;7.90;98.30;;;;;;4229532;28;20508;-77
2021/12/18 06:57:22;;;;;;;10.70;7.90;;;7.90;98.30;;;;;;4229290;28;20463;-77
2021/12/18 06:59:25;;;;;;;12.77;9.30;;;7.90;98.30;;;;;;4229504;28;20697;-77
2021/12/18 07:01:30;;;;;;;10.63;7.97;;;7.90;98.30;;;;;;4227609;28;20537;-77
2021/12/18 07:03:33;;;;;;;10.63;8.50;;;7.90;98.30;;;;;;4226139;28;20510;-78
2021/12/18 07:05:36;;;;;;;11.77;8.90;;;7.90;98.30;;;;;;4207795;28;20562;-79
2021/12/18 07:07:40;;;;;;;12.43;7.87;;;7.90;98.30;;;;;;4221213;28;20474;-78
2021/12/18 07:09:43;;;;;;;12.30;8.50;;;7.90;98.30;;;;;;4227311;28;20468;-78
2021/12/18 07:11:45;;;;;;;11.73;7.87;;;7.90;98.30;;;;;;4225620;28;20475;-78
2021/12/18 07:13:48;;;;;;;8.50;7.20;;;7.90;98.30;;;;;;4220981;28;20528;-77
2021/12/18 07:15:53;;;;;;;9.63;8.00;;;7.90;98.30;;;;;;4225850;28;20487;-77
2021/12/18 07:17:57;;;;;;;10.70;8.00;;;7.90;98.30;;;;;;4228658;28;20464;-78
2021/12/18 07:20:00;;;;;;;14.47;8.50;;;7.90;98.30;;;;;;4226356;28;20967;-77
2021/12/18 07:22:04;;;;;;;11.47;8.60;;;8.00;98.30;;;;;;4226518;28;20485;-78
2021/12/18 07:24:08;;;;;;;19.93;13.60;;;8.00;98.30;;;;;;4228324;28;20446;-78
2021/12/18 07:26:12;;;;;;;43.43;26.60;;;8.00;98.30;;;;;;4223641;28;20467;-78
2021/12/18 07:28:15;;;;;;;20.20;13.10;;;7.90;98.30;;;;;;4228845;28;20506;-78
2021/12/18 07:30:23;;;;;;;9.30;7.37;;;8.00;98.30;;;;;;4220102;28;20471;-78
2021/12/18 07:32:27;;;;;;;8.43;6.67;;;7.90;98.30;;;;;;4220930;28;20493;-78
2021/12/18 07:34:31;;;;;;;11.77;8.00;;;7.90;98.30;;;;;;4221190;28;20480;-78
2021/12/18 07:36:34;;;;;;;13.13;9.20;;;7.90;98.30;;;;;;4211931;28;20496;-78
2021/12/18 07:38:37;;;;;;;10.60;8.13;;;7.90;98.30;;;;;;4202259;28;20472;-78
2021/12/18 07:40:39;;;;;;;10.43;7.00;;;7.90;98.30;;;;;;4230946;28;20532;-78
2021/12/18 07:42:42;;;;;;;9.73;6.97;;;7.90;98.30;;;;;;4222583;28;21028;-78
2021/12/18 07:44:46;;;;;;;9.10;6.80;;;7.80;98.30;;;;;;4227048;28;20935;-78
2021/12/18 07:46:49;;;;;;;8.43;6.70;;;7.80;98.30;;;;;;4213748;28;20471;-78
2021/12/18 07:48:52;;;;;;;13.23;8.47;;;7.90;98.30;;;;;;4220789;28;20533;-78
2021/12/18 07:50:56;;;;;;;23.53;14.40;;;7.90;98.30;;;;;;4227280;28;20485;-78
2021/12/18 07:52:59;;;;;;;7.07;5.50;;;7.90;98.30;;;;;;4227659;28;20527;-78
2021/12/18 07:55:02;;;;;;;8.10;5.07;;;8.00;98.30;;;;;;4223979;28;20872;-78
2021/12/18 07:57:10;;;;;;;7.13;5.03;;;7.90;98.30;;;;;;4216794;28;20474;-78
2021/12/18 07:59:13;;;;;;;10.60;7.10;;;8.00;98.30;;;;;;4220852;28;20469;-78
2021/12/18 08:01:15;;;;;;;14.00;6.70;;;7.90;98.30;;;;;;4226810;28;20530;-78
2021/12/18 08:03:18;;;;;;;8.40;6.70;;;7.90;98.30;;;;;;4234087;28;20485;-77
2021/12/18 08:05:21;;;;;;;8.33;5.80;;;7.90;98.30;;;;;;4223356;28;20522;-78
2021/12/18 08:07:26;;;;;;;9.37;6.50;;;7.90;98.30;;;;;;4226909;28;20479;-78
2021/12/18 08:09:29;;;;;;;10.83;6.43;;;7.90;98.30;;;;;;4222418;28;20539;-78
2021/12/18 08:11:31;;;;;;;10.20;7.27;;;8.00;98.30;;;;;;4227437;28;20481;-78
2021/12/18 08:13:34;;;;;;;9.10;7.17;;;8.00;98.30;;;;;;4225880;28;20465;-78
2021/12/18 08:15:37;;;;;;;11.50;7.43;;;8.00;98.30;;;;;;4221620;28;20479;-78
2021/12/18 08:20:43;;;;;;;13.40;7.83;;;8.00;98.30;;;;;;4488743;23;20526;-88
2021/12/18 08:23:09;;;;;;;16.40;10.20;;;8.00;98.30;;;;;;4164538;28;20474;-86
2021/12/18 08:25:29;;;;;;;13.70;9.03;;;7.90;98.30;;;;;;4174123;28;20976;-88
2021/12/18 08:28:04;;;;;;;15.27;11.00;;;7.90;98.30;;;;;;4173907;28;20522;-87
2021/12/18 08:30:22;;;;;;;;;;;;;;;;;;;;;
2021/12/18 08:32:39;;;;;;;20.00;11.60;;;7.90;98.30;;;;;;4155755;28;20535;-88
2021/12/18 08:35:06;;;;;;;16.40;11.17;;;7.90;98.30;;;;;;4169820;28;20504;-89
2021/12/18 08:38:18;;;;;;;16.77;10.40;;;7.90;98.30;;;;;;4150492;28;20480;-88
2021/12/18 08:43:17;;;;;;;19.73;13.80;;;7.80;98.30;;;;;;4164227;28;20541;-87
2021/12/18 08:49:37;;;;;;;;;;;;;;;;;;;;;
2021/12/18 08:52:07;;;;;;;19.50;14.47;;;7.90;98.30;;;;;;4090552;29;20480;-88
2021/12/18 08:54:40;;;;;;;20.27;13.67;;;7.90;98.30;;;;;;4040676;29;20479;-86
2021/12/18 08:57:02;;;;;;;18.57;12.40;;;7.90;98.30;;;;;;4093886;28;20505;-88
2021/12/18 09:09:48;;;;;;;18.63;12.10;;;7.80;98.30;;;;;;3953437;30;20554;-86
2021/12/18 09:11:57;;;;;;;17.10;12.63;;;7.80;98.30;;;;;;3923341;29;20481;-88
2021/12/18 09:14:32;;;;;;;14.20;11.30;;;7.70;98.30;;;;;;3980576;29;20476;-87
2021/12/18 09:23:05;;;;;;;10.70;7.90;;;7.70;98.30;;;;;;4076640;29;20566;-87
2021/12/18 09:28:51;;;;;;;8.13;5.73;;;7.80;98.30;;;;;;4015060;29;21051;-87
2021/12/18 09:31:05;;;;;;;8.37;5.57;;;7.70;98.30;;;;;;4083486;29;20999;-88
2021/12/18 09:33:16;;;;;;;9.30;6.70;;;7.80;98.30;;;;;;4074667;29;21050;-87
2021/12/18 09:38:58;;;;;;;9.10;6.37;;;7.70;98.30;;;;;;4036053;29;20525;-88
2021/12/18 09:44:32;;;;;;;15.53;10.70;;;7.80;98.30;;;;;;4072413;29;20482;-86
2021/12/18 09:46:46;;;;;;;10.63;6.93;;;7.80;98.30;;;;;;4090627;29;20471;-88
2021/12/18 09:49:07;;;;;;;7.80;6.33;;;7.80;98.30;;;;;;4120548;28;20494;-87
2021/12/18 09:51:27;;;;;;;10.60;6.30;;;7.80;98.30;;;;;;4164674;28;20480;-91
2021/12/18 09:54:02;;;;;;;8.53;5.53;;;7.80;98.30;;;;;;4157435;28;20515;-89
2021/12/18 09:56:16;;;;;;;14.77;6.77;;;7.90;98.30;;;;;;4161350;28;20586;-91
2021/12/18 09:58:35;;;;;;;8.43;6.13;;;7.90;98.30;;;;;;4163177;28;20484;-89
2021/12/18 10:00:44;;;;;;;8.90;5.67;;;7.90;98.30;;;;;;4160847;28;20526;-94
2021/12/18 10:03:11;;;;;;;10.07;7.00;;;8.00;98.30;;;;;;4162897;28;20566;-90
2021/12/18 10:06:25;;;;;;;13.87;7.77;;;8.00;98.30;;;;;;4111419;28;20471;-89
2021/12/18 10:21:10;;;;;;;13.50;8.77;;;8.10;98.30;;;;;;4051566;29;20560;-91
2021/12/18 10:24:03;;;;;;;12.80;10.30;;;8.10;98.30;;;;;;4048341;29;20503;-91
2021/12/18 10:26:45;;;;;;;15.00;9.10;;;8.20;98.30;;;;;;3994132;29;20518;-89
2021/12/18 10:29:34;;;;;;;15.50;9.80;;;8.20;98.30;;;;;;4111719;29;20574;-92
2021/12/18 10:32:40;;;;;;;16.47;8.67;;;8.20;98.30;;;;;;4090993;28;20466;-89
2021/12/18 10:48:45;;;;;;;10.13;5.80;;;8.40;98.30;;;;;;4074863;29;20497;-89
2021/12/18 10:51:21;;;;;;;;;;;;;;;;;;;;;
2021/12/18 11:00:31;;;;;;;14.80;6.70;;;8.50;98.30;;;;;;4032760;29;20473;-89
2021/12/18 11:16:27;;;;;;;18.53;7.00;;;8.80;98.30;;;;;;4118081;28;20511;-91
2021/12/18 11:18:51;;;;;;;9.03;4.67;;;8.80;98.30;;;;;;4098728;29;20567;-89
2021/12/18 11:21:50;;;;;;;9.13;5.40;;;8.80;98.30;;;;;;4102558;29;20465;-85
2021/12/18 11:27:32;;;;;;;14.03;7.37;;;8.70;98.30;;;;;;4117349;28;20486;-90
2021/12/18 11:29:55;;;;;;;15.63;7.40;;;8.80;98.30;;;;;;4105641;28;20483;-89
2021/12/18 11:35:37;;;;;;;12.50;7.40;;;8.80;98.30;;;;;;4058258;29;20568;-89
2021/12/18 11:37:44;;;;;;;13.80;7.73;;;8.80;98.30;;;;;;4096595;28;20486;-87
2021/12/18 11:44:22;;;;;;;18.57;9.13;;;8.70;98.30;;;;;;4122309;28;20472;-89
2021/12/18 11:47:03;;;;;;;12.13;8.33;;;8.80;98.30;;;;;;4151101;28;20435;-87
2021/12/18 11:49:41;;;;;;;15.03;7.37;;;8.80;98.30;;;;;;4155675;28;20466;-87
2021/12/18 11:52:29;;;;;;;18.27;8.47;;;8.90;98.30;;;;;;4152841;28;20459;-89
2021/12/18 11:54:58;;;;;;;16.50;8.80;;;8.90;98.30;;;;;;4141381;28;20500;-89
2021/12/18 11:57:33;;;;;;;17.17;8.07;;;8.90;98.30;;;;;;4147697;28;21034;-89
2021/12/18 12:02:45;;;;;;;18.73;6.90;;;9.00;98.30;;;;;;4119746;28;20474;-90
2021/12/18 12:05:47;;;;;;;14.27;7.10;;;9.00;98.30;;;;;;4166658;28;20544;-89
2021/12/18 12:08:38;;;;;;;14.97;7.60;;;9.10;98.30;;;;;;4112069;28;20872;-86
2021/12/18 12:14:31;;;;;;;13.70;7.10;;;9.10;98.30;;;;;;4061742;29;20515;-89
2021/12/18 12:17:15;;;;;;;14.10;7.10;;;9.10;98.30;;;;;;4094852;29;20476;-90
2021/12/18 12:19:59;;;;;;;14.00;6.60;;;9.10;98.30;;;;;;4138887;28;20505;-88
2021/12/18 12:29:16;;;;;;;23.17;9.27;;;9.20;98.30;;;;;;4109908;29;20516;-91
2021/12/18 12:35:46;;;;;;;;;;;;;;;;;;;;;
2021/12/18 12:38:56;;;;;;;14.60;5.57;;;9.20;98.30;;;;;;4047151;29;20910;-90
2021/12/18 12:41:41;;;;;;;19.00;5.60;;;9.30;98.30;;;;;;4047585;29;20486;-89
2021/12/18 12:48:37;;;;;;;11.00;5.30;;;9.40;98.30;;;;;;4109040;29;20484;-88
2021/12/18 13:15:48;;;;;;;18.63;5.57;;;10.70;98.30;;;;;;3937008;30;20515;-90
2021/12/18 13:25:48;;;;;;;15.80;5.40;;;11.60;98.30;;;;;;4001758;29;20491;-89
2021/12/18 13:28:46;;;;;;;12.27;5.30;;;12.40;98.30;;;;;;4066453;29;20494;-90
2021/12/18 13:34:56;;;;;;;12.00;6.33;;;13.90;98.30;;;;;;4026204;29;20540;-87
2021/12/18 13:44:23;;;;;;;12.33;5.37;;;14.10;98.30;;;;;;4019974;29;20543;-89
2021/12/18 13:50:35;;;;;;;14.27;5.20;;;13.60;98.30;;;;;;3982723;29;20465;-86
2021/12/18 13:53:08;;;;;;;22.43;5.53;;;12.90;98.30;;;;;;4000324;29;20486;-88
2021/12/18 14:04:58;;;;;;;11.77;4.80;;;11.80;98.30;;;;;;4031919;29;20460;-89
2021/12/18 14:07:52;;;;;;;20.53;5.13;;;11.60;98.30;;;;;;4068820;29;20471;-87
2021/12/18 14:10:45;;;;;;;11.20;5.40;;;11.60;98.30;;;;;;4035006;29;20480;-90
2021/12/18 14:16:44;;;;;;;12.30;4.60;;;11.90;98.30;;;;;;3937308;30;20479;-88
2021/12/18 14:19:42;;;;;;;11.80;4.80;;;11.90;98.30;;;;;;3994147;29;20589;-90
2021/12/18 14:22:31;;;;;;;15.80;5.37;;;12.00;98.30;;;;;;3955114;30;20481;-89
2021/12/18 14:29:14;;;;;;;16.57;5.20;;;11.90;98.30;;;;;;3941062;30;20490;-89
2021/12/18 14:45:38;;;;;;;14.10;7.07;;;11.20;98.30;;;;;;3969112;30;20499;-89
2021/12/18 14:49:18;;;;;;;8.67;5.17;;;11.00;98.30;;;;;;3990777;29;20504;-88
2021/12/18 14:51:26;;;;;;;9.37;5.77;;;10.70;98.30;;;;;;4014269;29;20481;-88
2021/12/18 14:53:38;;;;;;;11.27;5.60;;;10.40;98.30;;;;;;4013926;29;20577;-88
2021/12/18 14:58:50;;;;;;;10.13;5.80;;;10.10;98.30;;;;;;4072567;29;21075;-88
2021/12/18 15:04:11;;;;;;;10.03;5.00;;;9.80;98.30;;;;;;4099968;28;20497;-89
2021/12/18 15:06:44;;;;;;;14.13;5.67;;;9.70;98.30;;;;;;4125349;28;20473;-90
2021/12/18 15:09:24;;;;;;;;;;;;;;;;;;;;;
2021/12/18 15:11:47;;;;;;;17.63;4.80;;;9.40;98.30;;;;;;4062458;29;20485;-91
2021/12/18 15:20:07;;;;;;;13.00;5.70;;;9.20;98.30;;;;;;4043845;29;20469;-89
2021/12/18 15:22:28;;;;;;;11.63;5.93;;;9.20;98.30;;;;;;4019586;29;20485;-87
2021/12/18 15:27:50;;;;;;;9.70;5.17;;;9.10;98.30;;;;;;4020369;29;20561;-89
2021/12/18 15:50:21;;;;;;;10.67;5.43;;;8.70;98.30;;;;;;3907863;29;20497;-89
2021/12/18 15:52:30;;;;;;;13.47;6.00;;;8.60;98.30;;;;;;4063984;29;20479;-89
2021/12/18 15:54:35;;;;;;;19.47;5.77;;;8.60;98.30;;;;;;4055453;29;20543;-89